Time;durP1;ratioP1;P1;durP2;ratioP2;P2;SDS_P1;SDS_P2;PMS_P1;PMS_P2;Temp;Humidity;BMP_temperature;BMP_pressure;BME280_temperature;BME280_humidity;BME280_pressure;Samples;Min_cycle;Max_cycle;Signal;HPM_P1;HPM_P2
2021/06/10 00:01:27;;;;;;;9.90;8.70;;;;;;;16.36;96.33;99184.00;1731545;81;20925;-58
2021/06/10 00:03:54;;;;;;;9.88;8.88;;;;;;;16.36;96.51;99184.00;1730247;81;21510;-59
2021/06/10 00:09:08;;;;;;;10.40;9.20;;;;;;;16.40;96.71;99185.45;1784625;79;22803;-58
2021/06/10 00:11:36;;;;;;;11.50;9.73;;;;;;;16.32;96.70;99188.83;1735990;80;21640;-60
2021/06/10 00:14:03;;;;;;;10.32;9.00;;;;;;;16.30;97.01;99191.29;1734224;81;21117;-61
2021/06/10 00:16:30;;;;;;;10.75;9.58;;;;;;;16.29;97.24;99190.92;1732014;80;20927;-62
2021/06/10 00:18:57;;;;;;;11.33;9.23;;;;;;;16.26;97.26;99178.45;1730742;81;20919;-62
2021/06/10 00:21:24;;;;;;;10.00;9.10;;;;;;;16.26;97.34;99188.48;1732084;81;21014;-62
2021/06/10 00:23:52;;;;;;;10.82;9.70;;;;;;;16.23;97.57;99193.16;1734813;81;21015;-62
2021/06/10 00:26:19;;;;;;;13.95;10.20;;;;;;;16.21;97.79;99189.72;1731506;80;21185;-63
2021/06/10 00:28:47;;;;;;;13.55;10.60;;;;;;;16.20;98.19;99186.63;1733840;81;20891;-58
2021/06/10 00:31:15;;;;;;;11.73;9.83;;;;;;;16.19;98.26;99178.11;1732048;80;21086;-60
2021/06/10 00:33:41;;;;;;;11.68;9.50;;;;;;;16.18;98.15;99180.44;1734137;80;20930;-61
2021/06/10 00:36:08;;;;;;;10.98;9.23;;;;;;;16.18;98.35;99177.71;1731188;80;20927;-62
2021/06/10 00:38:35;;;;;;;12.45;9.83;;;;;;;16.16;98.47;99182.43;1736339;81;21683;-61
2021/06/10 00:41:02;;;;;;;10.63;9.63;;;;;;;16.14;98.66;99178.09;1736360;81;20979;-47
2021/06/10 00:43:30;;;;;;;10.50;9.40;;;;;;;16.12;98.73;99171.42;1730913;80;20923;-50
2021/06/10 00:45:57;;;;;;;10.45;9.43;;;;;;;16.11;98.86;99166.98;1732862;80;21087;-49
2021/06/10 00:48:24;;;;;;;18.00;10.10;;;;;;;16.10;98.95;99167.98;1730418;80;20970;-48
2021/06/10 00:50:52;;;;;;;10.98;9.85;;;;;;;16.07;98.98;99175.02;1732306;81;21046;-50
2021/06/10 00:53:21;;;;;;;14.85;9.35;;;;;;;16.05;99.43;99170.20;1730424;80;20990;-50
2021/06/10 00:55:56;;;;;;;11.65;9.30;;;;;;;16.03;99.63;99164.01;1731454;80;20942;-58
2021/06/10 00:58:23;;;;;;;11.15;10.13;;;;;;;16.02;99.69;99165.00;1731930;80;20978;-60
2021/06/10 01:00:50;;;;;;;13.85;9.80;;;;;;;16.01;99.89;99159.70;1730169;81;20998;-60
2021/06/10 01:03:17;;;;;;;11.65;9.38;;;;;;;15.99;100.00;99157.12;1731988;80;21093;-60
2021/06/10 01:05:44;;;;;;;12.95;10.55;;;;;;;15.98;100.00;99160.83;1732629;81;20888;-61
2021/06/10 01:08:28;;;;;;;10.75;9.60;;;;;;;15.94;100.00;99160.21;1696703;81;21451;-59
2021/06/10 01:11:15;;;;;;;12.70;9.75;;;;;;;15.93;100.00;99152.19;1732526;81;20963;-59
2021/06/10 01:14:20;;;;;;;11.65;10.13;;;;;;;15.92;100.00;99151.79;1699302;81;21463;-61
2021/06/10 01:16:47;;;;;;;11.63;10.38;;;;;;;15.91;100.00;99156.86;1732372;80;21135;-60
2021/06/10 01:19:43;;;;;;;11.48;10.30;;;;;;;15.90;100.00;99159.22;1731563;80;20923;-62
2021/06/10 01:22:29;;;;;;;11.30;9.45;;;;;;;15.90;100.00;99160.58;1730010;81;21512;-61
2021/06/10 01:25:41;;;;;;;13.22;10.00;;;;;;;15.89;100.00;99168.38;1697681;81;20990;-58
2021/06/10 01:28:28;;;;;;;14.75;10.85;;;;;;;15.89;100.00;99164.30;1729851;80;20975;-60
2021/06/10 01:30:57;;;;;;;11.18;10.03;;;;;;;15.86;100.00;99171.33;1702928;81;21201;-49
2021/06/10 01:33:32;;;;;;;10.40;9.13;;;;;;;15.85;100.00;99164.17;1700022;81;21578;-50
2021/06/10 01:36:04;;;;;;;12.40;9.75;;;;;;;15.84;100.00;99158.37;1713833;80;20923;-57
2021/06/10 01:38:31;;;;;;;11.53;10.35;;;;;;;15.82;100.00;99156.25;1727792;80;20966;-57
2021/06/10 01:40:59;;;;;;;11.88;10.68;;;;;;;15.81;100.00;99156.74;1728769;80;20995;-56
2021/06/10 01:43:29;;;;;;;10.98;9.60;;;;;;;15.81;100.00;99158.60;1729120;80;21315;-49
2021/06/10 01:45:57;;;;;;;12.33;10.53;;;;;;;15.80;100.00;99155.02;1731108;81;20943;-51
2021/06/10 01:48:24;;;;;;;11.55;10.45;;;;;;;15.81;100.00;99151.80;1731424;80;21003;-50
2021/06/10 01:50:54;;;;;;;11.80;10.65;;;;;;;15.80;100.00;99160.46;1732507;80;20970;-61
2021/06/10 01:53:21;;;;;;;14.35;10.10;;;;;;;15.82;100.00;99158.97;1732831;81;21446;-50
2021/06/10 01:55:48;;;;;;;10.93;9.48;;;;;;;15.82;100.00;99157.61;1718208;81;21143;-50
2021/06/10 01:58:15;;;;;;;15.03;10.10;;;;;;;15.82;100.00;99160.33;1729548;81;20979;-50
2021/06/10 02:00:42;;;;;;;11.35;9.80;;;;;;;15.83;100.00;99162.08;1729125;81;20946;-51
2021/06/10 02:03:09;;;;;;;13.78;9.80;;;;;;;15.84;100.00;99155.65;1727299;81;20975;-50
2021/06/10 02:09:05;;;;;;;12.30;10.03;;;;;;;15.90;100.00;99155.14;1781364;77;23212;-50
2021/06/10 02:11:33;;;;;;;11.53;10.38;;;;;;;15.87;100.00;99158.09;1735442;79;20954;-50
2021/06/10 02:14:01;;;;;;;12.15;10.23;;;;;;;15.89;100.00;99160.22;1732952;79;21154;-50
2021/06/10 02:16:27;;;;;;;12.43;10.63;;;;;;;15.93;100.00;99163.92;1732527;81;20938;-49
2021/06/10 02:18:54;;;;;;;11.15;9.28;;;;;;;15.98;100.00;99167.63;1701802;81;20986;-50
2021/06/10 02:21:21;;;;;;;11.60;10.18;;;;;;;16.07;100.00;99164.13;1732981;81;21007;-50
2021/06/10 02:23:48;;;;;;;10.43;9.30;;;;;;;16.20;100.00;99158.06;1731746;81;21002;-49
2021/06/10 02:26:15;;;;;;;10.72;9.63;;;;;;;16.28;100.00;99161.99;1733838;81;21110;-50
2021/06/10 02:28:42;;;;;;;12.40;10.18;;;;;;;16.29;100.00;99166.44;1734084;81;20884;-57
2021/06/10 02:31:09;;;;;;;11.70;9.85;;;;;;;16.30;100.00;99166.34;1731710;81;20986;-50
2021/06/10 02:37:57;;;;;;;12.65;9.63;;;;;;;16.52;100.00;99172.70;1854622;74;22188;-55
2021/06/10 02:40:33;;;;;;;;;;;;;;;16.58;99.85;99171.68;1800537;77;20888;-56
2021/06/10 02:43:04;;;;;;;9.63;8.55;;;;;;;16.66;99.07;99171.88;1822687;77;20097;-57
2021/06/10 02:45:36;;;;;;;10.03;9.00;;;;;;;16.78;98.26;99170.03;1826268;76;21813;-58
2021/06/10 02:48:03;;;;;;;10.45;9.40;;;;;;;16.84;97.13;99176.81;1794925;76;20938;-57
2021/06/10 02:50:30;;;;;;;11.83;9.43;;;;;;;16.83;96.90;99173.70;1824799;76;20932;-56
2021/06/10 02:52:58;;;;;;;9.65;8.75;;;;;;;16.78;96.70;99174.58;1826841;77;21461;-57
2021/06/10 02:55:25;;;;;;;11.00;9.48;;;;;;;16.73;96.79;99165.47;1826892;76;21131;-62
2021/06/10 02:57:56;;;;;;;9.75;8.75;;;;;;;16.68;96.76;99171.27;1799033;77;20955;-62
2021/06/10 03:00:27;;;;;;;9.90;8.88;;;;;;;16.62;96.89;99166.81;1829329;76;20916;-64
2021/06/10 03:02:54;;;;;;;11.68;9.38;;;;;;;16.58;97.15;99170.81;1825211;76;20908;-63
2021/06/10 03:05:23;;;;;;;11.53;9.18;;;;;;;16.54;97.31;99166.12;1826655;76;20959;-63
2021/06/10 03:07:52;;;;;;;11.30;8.98;;;;;;;16.52;97.61;99170.84;1827546;77;21337;-62
2021/06/10 03:10:24;;;;;;;12.73;9.48;;;;;;;16.47;97.86;99165.78;1828459;76;20937;-62
2021/06/10 03:12:51;;;;;;;11.20;9.40;;;;;;;16.44;98.09;99174.69;1829523;77;20889;-61
2021/06/10 03:15:18;;;;;;;11.83;9.35;;;;;;;16.43;98.24;99172.46;1798477;77;20984;-61
2021/06/10 03:17:45;;;;;;;12.15;9.68;;;;;;;16.46;98.31;99174.08;1822010;77;20964;-63
2021/06/10 03:20:12;;;;;;;10.20;9.20;;;;;;;16.49;98.33;99176.53;1826771;77;21740;-62
2021/06/10 03:22:39;;;;;;;11.90;8.90;;;;;;;16.51;98.40;99177.25;1825687;76;20975;-63
2021/06/10 03:25:08;;;;;;;12.78;9.35;;;;;;;16.52;98.44;99180.87;1826467;77;21466;-63
2021/06/10 03:27:36;;;;;;;10.98;8.98;;;;;;;16.51;98.42;99171.80;1828742;77;21454;-63
2021/06/10 03:30:07;;;;;;;10.63;9.63;;;;;;;16.52;98.42;99172.20;1803943;77;20904;-62
2021/06/10 03:32:34;;;;;;;10.53;9.00;;;;;;;16.52;98.50;99172.20;1832185;77;21017;-62
2021/06/10 03:35:01;;;;;;;12.60;9.30;;;;;;;16.53;98.63;99172.56;1829685;77;20924;-57
2021/06/10 03:37:28;;;;;;;10.68;9.13;;;;;;;16.55;98.67;99173.78;1831102;77;20885;-58
2021/06/10 03:39:55;;;;;;;11.15;9.35;;;;;;;16.55;98.66;99167.84;1828023;76;20956;-61
2021/06/10 03:42:22;;;;;;;14.25;10.00;;;;;;;16.56;98.68;99171.42;1798030;77;21546;-62
2021/06/10 03:44:49;;;;;;;11.05;8.95;;;;;;;16.59;98.80;99174.77;1829759;76;21075;-62
2021/06/10 03:47:16;;;;;;;12.68;9.98;;;;;;;16.63;98.66;99172.16;1798199;77;20960;-61
2021/06/10 03:49:43;;;;;;;12.10;9.13;;;;;;;16.72;98.42;99172.78;1828105;76;21340;-49
2021/06/10 03:52:10;;;;;;;10.43;9.43;;;;;;;16.81;98.09;99168.39;1829638;76;21529;-50
2021/06/10 03:54:37;;;;;;;12.78;9.63;;;;;;;17.08;97.49;99173.33;1832213;76;21016;-49
2021/06/10 03:57:05;;;;;;;9.40;8.43;;;;;;;17.27;96.72;99169.88;1830074;76;21060;-50
2021/06/10 03:59:31;;;;;;;13.43;9.28;;;;;;;17.34;95.53;99178.37;1808197;77;20971;-49
2021/06/10 04:01:58;;;;;;;10.23;9.23;;;;;;;17.37;94.80;99175.40;1827690;76;21469;-50
2021/06/10 04:04:27;;;;;;;11.03;9.65;;;;;;;17.33;94.66;99173.93;1828656;76;20900;-50
2021/06/10 04:06:55;;;;;;;12.07;10.88;;;;;;;17.31;94.54;99179.52;1825819;76;20916;-51
2021/06/10 04:09:24;;;;;;;11.25;9.25;;;;;;;17.29;94.58;99182.36;1830281;76;21627;-49
2021/06/10 04:11:51;;;;;;;11.43;9.85;;;;;;;17.26;94.54;99179.92;1827949;76;20936;-49
2021/06/10 04:14:18;;;;;;;11.88;9.48;;;;;;;17.26;94.60;99173.61;1829510;76;20936;-50
2021/06/10 04:16:45;;;;;;;10.72;9.70;;;;;;;17.22;94.84;99173.00;1823692;76;20936;-50
2021/06/10 04:19:15;;;;;;;14.33;10.40;;;;;;;17.21;94.91;99175.88;1830949;76;21352;-49
2021/06/10 04:21:43;;;;;;;13.98;10.20;;;;;;;17.19;95.13;99172.39;1826603;76;21104;-49
2021/06/10 04:24:10;;;;;;;12.10;9.50;;;;;;;17.29;95.03;99172.82;1827166;76;20937;-51
2021/06/10 04:26:37;;;;;;;9.98;9.08;;;;;;;17.58;94.69;99170.78;1827824;77;21369;-50
2021/06/10 04:29:04;;;;;;;11.43;10.00;;;;;;;17.97;92.88;99170.97;1825729;76;20949;-51
2021/06/10 04:31:31;;;;;;;11.63;8.68;;;;;;;18.29;91.85;99174.36;1827861;77;20940;-49
2021/06/10 04:33:58;;;;;;;10.35;9.35;;;;;;;18.68;89.94;99182.64;1828073;76;21466;-52
2021/06/10 04:36:25;;;;;;;13.18;9.20;;;;;;;19.01;87.99;99184.08;1829425;77;21139;-52
2021/06/10 04:38:52;;;;;;;10.80;8.53;;;;;;;19.30;85.60;99181.33;1824411;76;21484;-58
2021/06/10 04:41:19;;;;;;;10.60;8.83;;;;;;;19.47;83.31;99180.22;1828143;77;20909;-58
2021/06/10 04:43:46;;;;;;;9.18;8.28;;;;;;;19.45;83.09;99178.14;1833188;76;20987;-58
2021/06/10 04:46:13;;;;;;;9.73;8.38;;;;;;;19.51;82.93;99181.65;1828748;76;21006;-59
2021/06/10 04:48:40;;;;;;;10.28;8.55;;;;;;;19.43;82.41;99182.88;1824802;77;21426;-60
2021/06/10 04:51:07;;;;;;;9.75;7.42;;;;;;;19.29;83.02;99178.24;1828298;77;20921;-59
2021/06/10 04:53:34;;;;;;;8.75;7.80;;;;;;;19.21;83.43;99181.34;1826718;76;21456;-59
2021/06/10 04:56:01;;;;;;;9.73;8.75;;;;;;;19.07;83.57;99179.42;1824827;76;20897;-58
2021/06/10 04:58:28;;;;;;;9.25;8.35;;;;;;;18.86;84.33;99179.22;1826847;76;21209;-58
2021/06/10 05:00:55;;;;;;;11.03;9.60;;;;;;;18.70;85.48;99183.38;1825311;76;21571;-59
2021/06/10 05:03:22;;;;;;;10.78;9.33;;;;;;;18.61;85.86;99176.00;1829344;76;20900;-58
2021/06/10 05:05:50;;;;;;;10.13;8.75;;;;;;;18.52;86.55;99179.58;1831205;76;20948;-58
2021/06/10 05:08:16;;;;;;;10.40;9.23;;;;;;;18.46;87.22;99173.31;1824276;77;20925;-57
2021/06/10 05:10:43;;;;;;;10.50;9.50;;;;;;;18.43;87.69;99168.13;1828122;76;21116;-57
2021/06/10 05:13:10;;;;;;;11.53;10.32;;;;;;;18.44;87.90;99175.34;1757715;79;20912;-59
2021/06/10 05:15:37;;;;;;;10.93;8.98;;;;;;;18.42;87.93;99178.69;1760099;79;21035;-59
2021/06/10 05:18:06;;;;;;;11.20;9.28;;;;;;;18.41;88.01;99175.61;1776200;78;20959;-59
2021/06/10 05:20:33;;;;;;;11.25;8.18;;;;;;;18.45;88.21;99179.28;1777362;79;20943;-58
2021/06/10 05:23:00;;;;;;;10.48;8.60;;;;;;;18.48;87.72;99175.39;1756154;80;21326;-59
2021/06/10 05:25:27;;;;;;;12.23;8.85;;;;;;;18.46;87.70;99183.73;1787745;77;20876;-58
2021/06/10 05:27:53;;;;;;;9.53;8.50;;;;;;;18.47;87.65;99179.13;1790352;77;20935;-61
2021/06/10 05:30:21;;;;;;;16.90;9.85;;;;;;;18.48;87.73;99180.38;1786840;79;20887;-59
2021/06/10 05:32:49;;;;;;;9.28;8.30;;;;;;;18.52;87.88;99175.48;1789495;79;21363;-58
2021/06/10 05:35:16;;;;;;;12.45;8.18;;;;;;;18.56;87.68;99178.30;1785044;79;21429;-58
2021/06/10 05:37:43;;;;;;;8.98;8.10;;;;;;;18.68;87.45;99189.98;1788650;79;20863;-58
2021/06/10 05:40:10;;;;;;;8.08;7.28;;;;;;;18.93;86.25;99181.73;1793648;79;20879;-57
2021/06/10 05:42:38;;;;;;;9.88;7.97;;;;;;;19.30;84.76;99177.73;1790502;77;21418;-58
2021/06/10 05:45:06;;;;;;;7.85;6.47;;;;;;;19.75;82.68;99182.02;1792066;79;21463;-57
2021/06/10 05:47:33;;;;;;;9.50;6.50;;;;;;;20.10;79.81;99193.63;1764876;79;21223;-58
2021/06/10 05:50:00;;;;;;;8.88;6.50;;;;;;;20.45;78.43;99189.23;1789862;77;20883;-57
2021/06/10 05:52:28;;;;;;;7.85;6.75;;;;;;;21.02;76.10;99191.75;1793148;79;20960;-59
2021/06/10 05:54:55;;;;;;;7.45;6.30;;;;;;;21.35;73.28;99187.42;1788723;77;20962;-58
2021/06/10 05:57:22;;;;;;;8.80;5.55;;;;;;;21.82;71.76;99193.92;1790363;79;21573;-58
2021/06/10 05:59:49;;;;;;;6.90;6.20;;;;;;;22.10;69.73;99183.59;1790442;79;21132;-59
2021/06/10 06:02:16;;;;;;;9.20;5.45;;;;;;;22.24;69.53;99188.52;1788657;79;20970;-58
2021/06/10 06:04:43;;;;;;;8.75;5.33;;;;;;;22.51;68.14;99185.17;1790767;79;21418;-58
2021/06/10 06:07:10;;;;;;;5.58;5.08;;;;;;;22.52;66.88;99189.63;1787215;79;20910;-57
2021/06/10 06:09:37;;;;;;;5.35;4.42;;;;;;;22.41;66.27;99194.41;1793094;77;21054;-57
2021/06/10 06:12:11;;;;;;;9.23;5.12;;;;;;;22.56;65.96;99188.28;1795918;77;21151;-58
2021/06/10 06:14:39;;;;;;;7.03;4.53;;;;;;;22.72;65.70;99197.42;1772428;78;21422;-57
2021/06/10 06:17:07;;;;;;;8.65;4.60;;;;;;;22.92;64.22;99195.27;1772147;78;20883;-58
2021/06/10 06:19:36;;;;;;;4.55;4.15;;;;;;;23.04;63.91;99193.04;1772187;78;21916;-59
2021/06/10 06:22:04;;;;;;;4.78;3.92;;;;;;;23.19;63.00;99198.73;1772370;78;20983;-57
2021/06/10 06:24:32;;;;;;;4.20;3.35;;;;;;;23.55;61.70;99188.75;1772088;78;21050;-59
2021/06/10 06:26:59;;;;;;;3.50;3.20;;;;;;;23.87;58.68;99198.36;1774690;78;20958;-61
2021/06/10 06:29:26;;;;;;;5.05;3.77;;;;;;;23.41;59.03;99189.78;1774051;78;21468;-60
2021/06/10 06:31:53;;;;;;;3.67;3.37;;;;;;;23.03;60.07;99199.58;1774668;78;20915;-60
2021/06/10 06:34:20;;;;;;;5.50;4.35;;;;;;;22.72;61.64;99191.92;1769435;79;21590;-58
2021/06/10 06:36:47;;;;;;;5.33;4.70;;;;;;;22.57;62.59;99187.25;1770322;78;21115;-60
2021/06/10 06:39:14;;;;;;;5.15;4.37;;;;;;;22.56;62.83;99184.16;1773775;80;21444;-58
2021/06/10 06:41:40;;;;;;;5.37;4.87;;;;;;;22.67;63.17;99183.84;1774478;78;21494;-58
2021/06/10 06:44:08;;;;;;;4.85;4.03;;;;;;;22.79;62.64;99186.61;1768523;78;20989;-58
2021/06/10 06:46:35;;;;;;;3.85;3.55;;;;;;;23.20;61.53;99182.56;1776451;79;21008;-59
2021/06/10 06:49:02;;;;;;;5.15;4.47;;;;;;;23.57;60.42;99190.80;1772198;78;21029;-60
2021/06/10 06:51:30;;;;;;;5.20;4.33;;;;;;;23.37;60.41;99206.28;1772697;78;20879;-58
2021/06/10 06:53:58;;;;;;;7.42;4.58;;;;;;;23.51;60.44;99184.95;1771462;78;20983;-59
2021/06/10 06:56:25;;;;;;;5.75;3.80;;;;;;;23.96;60.12;99181.27;1769742;78;20891;-58
2021/06/10 06:58:53;;;;;;;4.17;3.65;;;;;;;24.58;58.08;99191.56;1777528;79;21042;-59
2021/06/10 07:01:20;;;;;;;4.40;4.00;;;;;;;24.75;56.17;99189.90;1773903;78;21499;-58
2021/06/10 07:03:47;;;;;;;6.30;3.60;;;;;;;24.54;56.93;99201.56;1774399;78;20944;-61
2021/06/10 07:06:14;;;;;;;6.05;4.45;;;;;;;24.16;56.91;99193.61;1774092;78;21295;-58
2021/06/10 07:08:42;;;;;;;3.98;3.58;;;;;;;23.87;58.23;99190.09;1772985;78;20892;-59
2021/06/10 07:11:09;;;;;;;3.37;3.05;;;;;;;23.72;58.39;99211.13;1770730;79;20980;-61
2021/06/10 07:13:37;;;;;;;3.20;2.92;;;;;;;23.28;57.57;99197.71;1773732;78;21104;-57
2021/06/10 07:16:05;;;;;;;3.92;2.75;;;;;;;22.96;58.11;99192.53;1773947;78;21035;-59
2021/06/10 07:18:32;;;;;;;6.55;3.85;;;;;;;22.58;59.05;99201.33;1772046;78;20970;-58
2021/06/10 07:20:59;;;;;;;6.58;3.80;;;;;;;22.30;61.24;99210.34;1773605;78;20990;-58
2021/06/10 07:23:27;;;;;;;3.45;3.15;;;;;;;22.11;62.36;99194.98;1772584;79;20950;-57
2021/06/10 07:25:56;;;;;;;5.78;3.50;;;;;;;21.97;63.68;99194.53;1774717;78;20911;-58
2021/06/10 07:28:23;;;;;;;3.70;3.17;;;;;;;21.87;63.10;99188.30;1771026;78;21368;-57
2021/06/10 07:30:50;;;;;;;3.62;3.17;;;;;;;21.79;63.66;99196.50;1776125;78;21271;-55
2021/06/10 07:33:17;;;;;;;7.05;4.45;;;;;;;21.74;63.83;99207.11;1769814;78;20899;-57
2021/06/10 07:35:44;;;;;;;3.33;3.05;;;;;;;21.65;64.57;99203.44;1775435;78;20967;-56
2021/06/10 07:38:11;;;;;;;5.17;3.17;;;;;;;21.50;65.35;99200.92;1754786;79;21138;-57
2021/06/10 07:40:39;;;;;;;5.17;3.52;;;;;;;21.27;65.35;99200.55;1739416;81;20983;-56
2021/06/10 07:43:06;;;;;;;4.42;3.83;;;;;;;21.13;66.56;99195.61;1740753;80;20905;-57
2021/06/10 07:45:32;;;;;;;8.20;4.67;;;;;;;21.03;67.54;99198.95;1763716;79;20897;-57
2021/06/10 07:47:59;;;;;;;4.72;4.22;;;;;;;20.98;67.62;99204.04;1762682;78;21052;-57
2021/06/10 07:50:27;;;;;;;4.03;3.72;;;;;;;21.06;67.82;99201.39;1775602;79;21318;-56
2021/06/10 07:52:54;;;;;;;7.72;4.35;;;;;;;21.16;67.78;99206.28;1776079;79;21451;-57
2021/06/10 07:55:21;;;;;;;7.65;5.28;;;;;;;21.22;67.75;99211.13;1776604;79;21483;-55
2021/06/10 07:57:49;;;;;;;4.70;4.30;;;;;;;21.24;66.86;99215.94;1776781;79;20863;-57
2021/06/10 08:00:17;;;;;;;5.70;5.10;;;;;;;21.15;66.15;99219.66;1778258;78;21080;-57
2021/06/10 08:02:44;;;;;;;6.53;5.03;;;;;;;21.06;66.90;99220.59;1774012;79;21753;-57
2021/06/10 08:05:12;;;;;;;7.22;5.42;;;;;;;21.01;67.37;99209.23;1774174;78;20895;-57
2021/06/10 08:07:43;;;;;;;5.67;5.17;;;;;;;21.02;68.51;99213.69;1778446;78;20974;-57
2021/06/10 08:10:13;;;;;;;7.97;5.03;;;;;;;21.06;68.29;99209.62;1778462;79;21457;-57
2021/06/10 08:12:40;;;;;;;6.12;5.10;;;;;;;21.04;69.06;99209.78;1778812;78;21001;-59
2021/06/10 08:15:07;;;;;;;5.72;5.22;;;;;;;21.06;68.92;99210.98;1781182;79;21257;-58
2021/06/10 08:17:35;;;;;;;6.00;5.35;;;;;;;21.06;69.09;99203.63;1779611;78;20915;-58
2021/06/10 08:20:09;;;;;;;5.58;5.08;;;;;;;21.09;68.31;99201.95;1778724;79;21453;-57
2021/06/10 08:22:36;;;;;;;6.90;5.05;;;;;;;21.09;68.06;99203.32;1774792;78;20919;-56
2021/06/10 08:25:05;;;;;;;5.92;5.35;;;;;;;21.03;68.34;99209.91;1776913;79;21441;-57
2021/06/10 08:27:32;;;;;;;5.53;4.60;;;;;;;20.92;68.31;99189.94;1780398;78;21072;-56
2021/06/10 08:29:59;;;;;;;5.28;4.78;;;;;;;20.92;68.23;99190.45;1776845;79;20934;-57
2021/06/10 08:32:26;;;;;;;4.55;4.15;;;;;;;20.98;67.08;99202.67;1776632;78;21056;-60
2021/06/10 08:34:53;;;;;;;6.95;5.03;;;;;;;21.00;66.31;99202.88;1773890;79;20903;-58
2021/06/10 08:37:20;;;;;;;4.70;4.20;;;;;;;20.99;66.77;99197.05;1780227;79;20960;-58
2021/06/10 08:39:48;;;;;;;6.50;4.85;;;;;;;21.05;66.78;99194.19;1778983;79;21102;-58
2021/06/10 08:42:15;;;;;;;5.58;4.37;;;;;;;21.10;66.06;99183.61;1779720;79;20993;-56
2021/06/10 08:44:43;;;;;;;6.90;4.80;;;;;;;21.17;65.91;99195.15;1778081;78;20863;-58
2021/06/10 08:47:12;;;;;;;5.40;4.90;;;;;;;21.30;65.81;99201.61;1778857;79;20913;-58
2021/06/10 08:49:44;;;;;;;4.90;4.50;;;;;;;21.34;66.03;99187.08;1742372;80;21058;-58
2021/06/10 08:52:08;;;;;;;5.22;4.42;;;;;;;21.36;65.14;99209.23;1777327;79;21098;-58
2021/06/10 08:54:35;;;;;;;4.83;4.22;;;;;;;21.37;64.41;99202.72;1776100;79;21108;-58
2021/06/10 08:57:03;;;;;;;6.97;4.05;;;;;;;21.41;63.25;99198.64;1753482;79;21018;-59
2021/06/10 08:59:30;;;;;;;3.77;3.45;;;;;;;21.53;63.02;99202.50;1777670;78;20872;-57
2021/06/10 09:01:57;;;;;;;4.47;4.08;;;;;;;21.63;60.33;99207.38;1742101;80;20992;-57
2021/06/10 09:04:24;;;;;;;5.10;3.65;;;;;;;21.72;61.25;99192.66;1775173;78;21071;-56
2021/06/10 09:06:54;;;;;;;3.98;3.67;;;;;;;21.81;61.28;99201.30;1746025;79;20955;-58
2021/06/10 09:09:37;;;;;;;4.05;3.67;;;;;;;21.85;60.53;99206.83;1742091;78;21066;-56
2021/06/10 09:12:09;;;;;;;4.78;3.87;;;;;;;21.87;59.29;99180.06;1766953;78;21513;-56
2021/06/10 09:14:56;;;;;;;3.83;3.47;;;;;;;21.85;59.92;99208.72;1769967;78;21124;-57
2021/06/10 09:17:42;;;;;;;3.95;3.52;;;;;;;21.87;59.65;99188.30;1776403;79;21484;-51
2021/06/10 09:20:27;;;;;;;3.72;3.42;;;;;;;21.89;59.86;99183.52;1777145;79;21402;-51
2021/06/10 09:23:23;;;;;;;6.58;3.67;;;;;;;21.93;59.13;99206.86;1778706;79;20959;-53
2021/06/10 09:26:07;;;;;;;4.00;3.70;;;;;;;21.92;59.06;99192.79;1776442;79;20973;-52
2021/06/10 09:28:35;;;;;;;4.08;3.77;;;;;;;22.00;59.49;99191.09;1778214;78;21104;-53
2021/06/10 09:31:02;;;;;;;4.00;3.52;;;;;;;22.13;60.25;99184.69;1777611;79;21869;-51
2021/06/10 09:33:40;;;;;;;4.03;3.65;;;;;;;22.28;59.43;99202.27;1776974;79;20979;-53
2021/06/10 09:36:07;;;;;;;7.97;4.58;;;;;;;22.26;58.84;99196.06;1778791;79;21381;-54
2021/06/10 09:38:34;;;;;;;4.72;4.12;;;;;;;22.15;60.16;99196.36;1749793;79;21047;-52
2021/06/10 09:41:06;;;;;;;4.55;4.15;;;;;;;22.01;60.69;99210.70;1761127;79;20962;-51
2021/06/10 09:43:43;;;;;;;6.35;4.20;;;;;;;21.91;60.70;99191.07;1757679;79;21816;-61
2021/06/10 09:46:10;;;;;;;11.30;4.60;;;;;;;21.84;61.93;99185.00;1759048;79;20976;-62
2021/06/10 09:48:37;;;;;;;4.75;4.25;;;;;;;21.90;62.16;99190.73;1756425;79;21055;-62
2021/06/10 09:51:05;;;;;;;5.05;4.55;;;;;;;21.92;61.33;99174.94;1784989;77;21462;-51
2021/06/10 09:53:34;;;;;;;7.17;5.05;;;;;;;21.88;62.09;99181.77;1786561;78;21590;-51
2021/06/10 09:56:07;;;;;;;6.50;5.17;;;;;;;21.88;62.46;99170.80;1793549;78;21110;-51
2021/06/10 09:58:36;;;;;;;6.03;5.00;;;;;;;21.94;63.04;99174.28;1784636;78;20918;-53
2021/06/10 10:01:11;;;;;;;6.58;4.70;;;;;;;21.99;63.30;99179.25;1785805;77;21440;-51
2021/06/10 10:03:44;;;;;;;5.33;4.83;;;;;;;21.97;62.33;99178.06;1786138;78;20922;-52
2021/06/10 10:06:23;;;;;;;11.60;5.33;;;;;;;22.00;62.43;99186.50;1786733;79;20882;-51
2021/06/10 10:08:49;;;;;;;5.30;4.80;;;;;;;22.09;62.42;99190.12;1784369;78;21432;-52
2021/06/10 10:11:15;;;;;;;5.33;4.83;;;;;;;22.12;60.70;99189.84;1789306;79;20882;-53
2021/06/10 10:13:43;;;;;;;5.62;4.90;;;;;;;22.06;61.29;99213.81;1790202;78;20930;-59
2021/06/10 10:16:11;;;;;;;5.70;5.15;;;;;;;21.92;64.24;99190.55;1760946;79;20918;-58
2021/06/10 10:18:38;;;;;;;8.03;5.70;;;;;;;21.84;65.19;99190.02;1766403;79;20946;-54
2021/06/10 10:21:06;;;;;;;8.70;5.30;;;;;;;21.82;65.94;99187.06;1791755;79;22201;-53
2021/06/10 10:23:34;;;;;;;6.90;5.92;;;;;;;21.79;66.63;99180.03;1789903;78;20859;-53
2021/06/10 10:26:04;;;;;;;6.22;5.53;;;;;;;21.72;67.30;99196.78;1788655;79;21336;-52
2021/06/10 10:28:35;;;;;;;6.67;5.55;;;;;;;21.59;67.77;99170.30;1785853;78;20907;-52
2021/06/10 10:31:04;;;;;;;8.53;6.28;;;;;;;21.54;68.51;99167.17;1792766;78;20969;-53
2021/06/10 10:33:31;;;;;;;6.08;5.47;;;;;;;21.54;69.06;99168.55;1789305;78;21602;-52
2021/06/10 10:36:02;;;;;;;7.87;5.22;;;;;;;21.49;69.39;99161.31;1787723;78;21483;-51
2021/06/10 10:38:35;;;;;;;8.58;6.62;;;;;;;21.45;69.53;99175.33;1783589;78;21009;-54
2021/06/10 10:41:09;;;;;;;7.50;6.75;;;;;;;21.39;69.33;99162.27;1787204;78;20946;-52
2021/06/10 10:43:36;;;;;;;7.12;6.10;;;;;;;21.34;70.13;99153.66;1788424;78;26591;-52
2021/06/10 10:46:18;;;;;;;11.38;6.83;;;;;;;21.24;71.31;99153.37;1789344;78;21739;-52
2021/06/10 10:48:49;;;;;;;8.55;6.28;;;;;;;21.07;71.41;99175.69;1785124;78;20982;-51
2021/06/10 10:51:34;;;;;;;7.47;6.28;;;;;;;20.88;72.02;99163.89;1787209;79;20974;-52
2021/06/10 10:54:03;;;;;;;6.15;5.55;;;;;;;20.77;72.17;99154.50;1790283;77;20871;-52
2021/06/10 10:56:41;;;;;;;10.58;6.65;;;;;;;20.76;72.89;99165.12;1787289;79;20916;-53
2021/06/10 10:59:19;;;;;;;8.63;7.10;;;;;;;20.78;72.67;99163.61;1788780;77;21871;-53
2021/06/10 11:02:07;;;;;;;11.97;7.25;;;;;;;20.80;73.12;99171.16;1784186;77;20981;-54
2021/06/10 11:04:59;;;;;;;10.30;6.42;;;;;;;20.83;72.95;99181.31;1788809;77;21427;-51
2021/06/10 11:07:44;;;;;;;11.83;6.87;;;;;;;20.82;73.03;99174.08;1786046;78;20957;-53
2021/06/10 11:10:50;;;;;;;8.45;6.62;;;;;;;20.76;73.29;99173.34;1786274;78;21049;-52
2021/06/10 11:13:20;;;;;;;11.83;7.05;;;;;;;20.74;74.09;99182.23;1788646;78;21130;-51
2021/06/10 11:15:51;;;;;;;14.80;6.70;;;;;;;20.73;73.63;99176.41;1790230;78;21342;-50
2021/06/10 11:18:46;;;;;;;7.87;6.58;;;;;;;20.76;72.95;99178.82;1788130;78;20974;-52
2021/06/10 11:21:33;;;;;;;9.13;6.42;;;;;;;20.81;72.61;99172.88;1791883;78;20950;-51
2021/06/10 11:24:13;;;;;;;8.35;6.47;;;;;;;20.87;72.51;99168.13;1763316;78;20914;-52
2021/06/10 11:26:49;;;;;;;9.85;6.45;;;;;;;20.90;72.32;99179.66;1788484;78;21152;-52
2021/06/10 11:29:17;;;;;;;12.82;6.20;;;;;;;20.91;72.19;99174.52;1786737;78;20949;-52
2021/06/10 11:31:48;;;;;;;9.65;6.65;;;;;;;20.90;72.38;99181.02;1787533;78;20946;-53
2021/06/10 11:34:31;;;;;;;9.93;7.20;;;;;;;20.89;72.98;99177.94;1756302;79;21028;-52
2021/06/10 11:37:03;;;;;;;7.60;5.80;;;;;;;20.92;72.63;99181.72;1787799;78;20906;-52
2021/06/10 11:39:34;;;;;;;6.35;5.67;;;;;;;20.87;71.19;99181.33;1789231;78;21848;-52
2021/06/10 11:42:06;;;;;;;6.28;5.30;;;;;;;20.82;71.57;99169.97;1755266;80;20923;-55
2021/06/10 11:44:46;;;;;;;7.00;5.25;;;;;;;20.83;71.09;99171.72;1787695;78;20987;-50
2021/06/10 11:47:38;;;;;;;8.88;5.90;;;;;;;20.86;69.78;99171.39;1787559;77;20912;-51
2021/06/10 11:50:27;;;;;;;6.60;6.00;;;;;;;20.89;69.72;99165.61;1758734;79;21014;-52
2021/06/10 11:52:57;;;;;;;6.72;5.55;;;;;;;21.00;70.33;99167.75;1785681;79;21124;-51